Time;durP1;ratioP1;P1;durP2;ratioP2;P2;SDS_P1;SDS_P2;PMS_P1;PMS_P2;Temp;Humidity;BMP_temperature;BMP_pressure;BME280_temperature;BME280_humidity;BME280_pressure;Samples;Min_cycle;Max_cycle;Signal;HPM_P1;HPM_P2
2023/08/04 00:00:46;;;;;;;4.15;2.30;;;16.00;99.90;;;;;;5035081;28;20045;-69
2023/08/04 00:03:11;;;;;;;6.47;2.22;;;15.90;99.90;;;;;;5037088;28;20512;-67
2023/08/04 00:05:37;;;;;;;8.57;2.38;;;15.90;99.90;;;;;;5043794;28;20465;-69
2023/08/04 00:08:03;;;;;;;6.50;2.58;;;15.90;99.90;;;;;;5043367;28;20037;-68
2023/08/04 00:10:28;;;;;;;11.38;2.58;;;16.00;99.90;;;;;;5040544;28;20165;-68
2023/08/04 00:12:54;;;;;;;5.07;1.95;;;16.00;99.90;;;;;;5031568;28;20044;-68
2023/08/04 00:15:19;;;;;;;8.60;2.60;;;16.00;99.90;;;;;;5031248;28;20617;-68
2023/08/04 00:17:45;;;;;;;6.00;2.30;;;16.00;99.90;;;;;;5030934;28;20484;-68
2023/08/04 00:20:11;;;;;;;6.95;2.47;;;16.00;99.90;;;;;;5031009;28;20033;-68
2023/08/04 00:22:37;;;;;;;4.03;2.05;;;15.90;99.90;;;;;;5043314;28;20532;-68
2023/08/04 00:25:03;;;;;;;4.82;2.20;;;15.90;99.90;;;;;;5044855;28;20530;-67
2023/08/04 00:27:29;;;;;;;7.53;2.28;;;15.90;99.90;;;;;;5046328;28;20045;-69
2023/08/04 00:29:54;;;;;;;4.90;2.30;;;15.90;99.90;;;;;;5053197;28;20177;-69
2023/08/04 00:32:21;;;;;;;8.70;2.50;;;15.90;99.90;;;;;;5047577;28;20318;-67
2023/08/04 00:34:47;;;;;;;5.38;2.30;;;15.90;99.90;;;;;;5055549;28;20439;-68
2023/08/04 00:37:12;;;;;;;7.13;2.60;;;15.90;99.90;;;;;;5049460;28;20041;-68
2023/08/04 00:39:38;;;;;;;8.95;2.20;;;15.90;99.90;;;;;;5045756;28;20087;-67
2023/08/04 00:42:03;;;;;;;6.30;2.40;;;15.90;99.90;;;;;;5040892;28;20064;-68
2023/08/04 00:44:29;;;;;;;5.07;2.00;;;15.90;99.90;;;;;;5055355;28;20034;-68
2023/08/04 00:46:56;;;;;;;5.20;1.90;;;15.90;99.90;;;;;;5036557;28;20433;-67
2023/08/04 00:49:21;;;;;;;6.25;2.17;;;15.90;99.90;;;;;;5037045;28;20046;-68
2023/08/04 00:51:47;;;;;;;7.85;2.63;;;15.90;99.90;;;;;;5029424;28;20061;-68
2023/08/04 00:54:13;;;;;;;7.18;2.28;;;15.90;99.90;;;;;;5020317;28;20047;-69
2023/08/04 00:56:39;;;;;;;5.63;2.13;;;15.90;99.90;;;;;;5032883;28;20045;-68
2023/08/04 00:59:06;;;;;;;6.82;2.08;;;15.90;99.90;;;;;;5042901;28;20362;-68
2023/08/04 01:01:32;;;;;;;9.10;2.25;;;15.90;99.90;;;;;;5042148;28;20068;-67
2023/08/04 01:03:58;;;;;;;6.55;2.35;;;15.90;99.90;;;;;;5016192;28;20156;-68
2023/08/04 01:06:48;;;;;;;6.95;2.47;;;15.90;99.90;;;;;;5038620;28;20423;-68
2023/08/04 01:09:30;;;;;;;6.65;2.30;;;15.80;99.90;;;;;;5042199;28;20040;-68
2023/08/04 01:12:07;;;;;;;4.78;1.95;;;15.80;99.90;;;;;;5026215;28;20037;-68
2023/08/04 01:14:34;;;;;;;9.65;2.25;;;15.80;99.90;;;;;;5045556;28;20032;-68
2023/08/04 01:17:21;;;;;;;7.50;2.25;;;15.80;99.90;;;;;;5045325;28;20398;-68
2023/08/04 01:19:47;;;;;;;4.20;2.20;;;15.80;99.90;;;;;;5032916;28;20120;-68
2023/08/04 01:22:13;;;;;;;4.40;2.40;;;15.70;99.90;;;;;;5030391;28;20066;-67
2023/08/04 01:24:38;;;;;;;11.10;2.70;;;15.70;99.90;;;;;;5045165;28;20033;-68
2023/08/04 01:27:05;;;;;;;5.95;2.47;;;15.70;99.90;;;;;;5045635;28;20046;-68
2023/08/04 01:29:31;;;;;;;5.05;2.38;;;15.70;99.90;;;;;;5035302;28;20037;-68
2023/08/04 01:31:58;;;;;;;6.80;2.50;;;15.70;99.90;;;;;;5066613;28;20081;-68
2023/08/04 01:34:24;;;;;;;6.80;2.60;;;15.60;99.90;;;;;;5041450;28;20045;-66
2023/08/04 01:36:50;;;;;;;5.13;2.22;;;15.60;99.90;;;;;;5031061;28;20112;-68
2023/08/04 01:39:16;;;;;;;11.35;2.13;;;15.60;99.90;;;;;;5047867;28;20113;-68
2023/08/04 01:41:42;;;;;;;7.35;2.45;;;15.60;99.90;;;;;;5030345;28;20037;-68
2023/08/04 01:44:07;;;;;;;4.57;2.33;;;15.60;99.90;;;;;;5046169;28;20048;-68
2023/08/04 01:46:33;;;;;;;6.05;2.30;;;15.70;99.90;;;;;;5037068;28;20105;-67
2023/08/04 01:48:58;;;;;;;5.38;1.92;;;15.70;99.90;;;;;;5055818;28;20479;-68
2023/08/04 01:51:24;;;;;;;6.82;2.00;;;15.60;99.90;;;;;;5048425;28;20099;-67
2023/08/04 01:53:49;;;;;;;5.15;2.20;;;15.70;99.90;;;;;;5059060;28;20144;-67
2023/08/04 01:56:15;;;;;;;6.75;2.38;;;15.70;99.90;;;;;;5042176;28;20431;-67
2023/08/04 01:58:41;;;;;;;5.43;1.90;;;15.70;99.90;;;;;;5044835;28;20037;-68
2023/08/04 02:01:06;;;;;;;4.97;2.53;;;15.60;99.90;;;;;;5038795;28;20040;-68
2023/08/04 02:03:34;;;;;;;8.20;2.10;;;15.60;99.90;;;;;;5031336;28;20068;-67
2023/08/04 02:06:00;;;;;;;7.22;1.92;;;15.60;99.90;;;;;;5038975;28;20067;-68
2023/08/04 02:08:26;;;;;;;5.38;1.90;;;15.60;99.90;;;;;;5043911;28;20041;-68
2023/08/04 02:10:51;;;;;;;4.13;1.63;;;15.50;99.90;;;;;;5014079;28;20056;-68
2023/08/04 02:13:17;;;;;;;4.03;1.60;;;15.50;99.90;;;;;;5044662;28;20081;-68
2023/08/04 02:15:42;;;;;;;10.82;1.77;;;15.40;99.90;;;;;;5039135;28;20578;-67
2023/08/04 02:18:08;;;;;;;3.97;1.52;;;15.30;99.90;;;;;;5032173;28;20037;-68
2023/08/04 02:20:34;;;;;;;4.70;1.80;;;15.30;99.90;;;;;;5035888;28;20049;-67
2023/08/04 02:22:59;;;;;;;4.30;1.73;;;15.20;99.90;;;;;;5043959;28;20626;-68
2023/08/04 02:25:25;;;;;;;3.35;1.73;;;15.10;99.90;;;;;;5035189;28;20037;-68
2023/08/04 02:27:50;;;;;;;5.30;1.70;;;15.10;99.90;;;;;;5022982;28;20037;-67
2023/08/04 02:30:16;;;;;;;6.97;1.85;;;15.00;99.90;;;;;;5041889;28;20615;-67
2023/08/04 02:32:42;;;;;;;3.28;1.40;;;15.00;99.90;;;;;;5044321;28;20502;-67
2023/08/04 02:35:08;;;;;;;4.13;1.48;;;14.90;99.90;;;;;;5042247;28;20034;-68
2023/08/04 02:37:33;;;;;;;5.85;1.50;;;14.80;99.90;;;;;;5024021;28;20068;-67
2023/08/04 02:39:59;;;;;;;3.20;1.33;;;14.80;99.90;;;;;;5030891;28;20457;-70
2023/08/04 02:42:24;;;;;;;2.58;1.30;;;14.80;99.90;;;;;;5047636;28;20072;-68
2023/08/04 02:44:54;;;;;;;5.68;1.70;;;14.80;99.90;;;;;;5039337;28;20044;-68
2023/08/04 02:47:20;;;;;;;5.80;1.30;;;14.80;99.90;;;;;;5029670;28;20485;-67
2023/08/04 02:49:46;;;;;;;5.93;1.50;;;14.80;99.90;;;;;;5055115;28;20120;-68
2023/08/04 02:52:14;;;;;;;5.30;1.50;;;14.90;99.90;;;;;;5038623;28;20057;-68
2023/08/04 02:54:40;;;;;;;3.85;1.27;;;14.90;99.90;;;;;;5040346;28;20068;-66
2023/08/04 02:57:06;;;;;;;5.53;1.75;;;15.00;99.90;;;;;;5042380;28;20042;-67
2023/08/04 02:59:32;;;;;;;4.63;1.50;;;15.00;99.90;;;;;;5041638;28;20082;-67
2023/08/04 03:01:57;;;;;;;4.47;1.50;;;15.00;99.90;;;;;;5040091;28;20041;-67
2023/08/04 03:04:23;;;;;;;6.97;1.30;;;15.00;99.90;;;;;;5035734;28;20075;-67
2023/08/04 03:06:49;;;;;;;3.75;1.15;;;15.00;99.90;;;;;;5031103;28;20067;-67
2023/08/04 03:09:14;;;;;;;4.45;1.25;;;15.10;99.90;;;;;;5028244;28;20041;-68
2023/08/04 03:11:40;;;;;;;4.72;1.38;;;15.00;99.90;;;;;;5017831;28;20040;-68
2023/08/04 03:14:05;;;;;;;4.72;1.42;;;15.00;99.90;;;;;;5037996;28;20140;-67
2023/08/04 03:16:31;;;;;;;2.65;1.20;;;14.90;99.90;;;;;;5031795;28;20069;-67
2023/08/04 03:18:56;;;;;;;3.20;1.50;;;14.80;99.90;;;;;;5030917;28;20504;-68
2023/08/04 03:21:22;;;;;;;8.55;1.42;;;14.80;99.90;;;;;;5027818;28;20040;-67
2023/08/04 03:23:48;;;;;;;2.90;1.10;;;14.80;99.90;;;;;;5034184;28;20033;-68
2023/08/04 03:26:13;;;;;;;2.80;1.00;;;14.70;99.90;;;;;;5036232;28;20377;-67
2023/08/04 03:28:39;;;;;;;4.03;1.52;;;14.70;99.90;;;;;;5058033;28;20037;-67
2023/08/04 03:31:04;;;;;;;3.13;1.33;;;14.70;99.90;;;;;;5047710;28;20033;-67
2023/08/04 03:33:30;;;;;;;4.78;1.40;;;14.80;99.90;;;;;;5036056;28;20068;-68
2023/08/04 03:35:56;;;;;;;4.35;1.40;;;14.80;99.90;;;;;;5034117;28;20102;-67
2023/08/04 03:38:22;;;;;;;3.65;1.30;;;14.80;99.90;;;;;;5043048;28;20807;-68
2023/08/04 03:40:47;;;;;;;3.75;1.50;;;14.90;99.90;;;;;;5032300;28;20416;-68
2023/08/04 03:43:13;;;;;;;4.75;1.45;;;14.90;99.90;;;;;;5046760;28;20776;-67
2023/08/04 03:45:38;;;;;;;4.63;1.25;;;14.90;99.90;;;;;;5033537;28;20041;-67
2023/08/04 03:48:04;;;;;;;4.10;1.13;;;14.90;99.90;;;;;;5050807;28;20488;-67
2023/08/04 03:50:30;;;;;;;3.47;1.45;;;15.00;99.90;;;;;;5039186;28;20045;-67
2023/08/04 03:52:56;;;;;;;2.75;1.35;;;15.00;99.90;;;;;;5046730;28;20111;-67
2023/08/04 03:55:21;;;;;;;3.70;1.40;;;15.00;99.90;;;;;;5047980;28;20126;-67
2023/08/04 03:57:47;;;;;;;3.47;1.38;;;15.00;99.90;;;;;;5049113;28;20091;-68
2023/08/04 04:00:13;;;;;;;3.60;1.45;;;15.00;99.90;;;;;;5054516;28;20123;-68
2023/08/04 04:02:39;;;;;;;3.65;1.60;;;15.10;99.90;;;;;;5043244;28;20465;-68
2023/08/04 04:05:04;;;;;;;3.63;1.48;;;15.10;99.90;;;;;;5035978;28;20126;-67
2023/08/04 04:07:30;;;;;;;2.17;1.20;;;15.00;99.90;;;;;;5046718;28;20044;-67
2023/08/04 04:09:55;;;;;;;5.07;1.40;;;15.00;99.90;;;;;;5049275;28;20117;-67
2023/08/04 04:12:21;;;;;;;5.13;1.60;;;15.00;99.90;;;;;;5042404;28;20041;-68
2023/08/04 04:14:47;;;;;;;4.15;1.40;;;15.10;99.90;;;;;;5041441;28;20125;-68
2023/08/04 04:17:12;;;;;;;4.35;2.17;;;15.10;99.90;;;;;;5036089;28;20103;-68
2023/08/04 04:19:38;;;;;;;6.03;1.48;;;15.10;99.90;;;;;;5038077;28;20072;-67
2023/08/04 04:22:04;;;;;;;4.68;1.38;;;15.10;99.90;;;;;;5048318;28;20492;-68
2023/08/04 04:24:29;;;;;;;4.80;1.73;;;15.10;99.90;;;;;;5032208;28;20036;-68
2023/08/04 04:26:55;;;;;;;5.32;1.90;;;15.10;99.90;;;;;;5033646;28;20044;-68
2023/08/04 04:29:20;;;;;;;5.00;1.48;;;15.10;99.90;;;;;;5018050;28;20034;-68
2023/08/04 04:31:46;;;;;;;2.88;1.20;;;15.20;99.90;;;;;;5031345;28;20045;-68
2023/08/04 04:34:12;;;;;;;6.47;1.65;;;15.10;99.90;;;;;;5040721;28;20159;-67
2023/08/04 04:36:37;;;;;;;6.35;2.25;;;15.20;99.90;;;;;;5019976;28;20055;-69
2023/08/04 04:39:03;;;;;;;3.30;1.40;;;15.20;99.90;;;;;;5031155;28;20446;-67
2023/08/04 04:41:29;;;;;;;4.05;1.48;;;15.20;99.90;;;;;;5044748;28;20056;-67
2023/08/04 04:43:56;;;;;;;4.28;1.80;;;15.20;99.90;;;;;;5033249;28;20595;-68
2023/08/04 04:46:22;;;;;;;7.05;1.10;;;15.30;99.90;;;;;;5031330;28;20388;-68
2023/08/04 04:48:47;;;;;;;4.07;1.38;;;15.30;99.90;;;;;;5037780;28;20055;-68
2023/08/04 04:51:13;;;;;;;2.22;1.25;;;15.30;99.90;;;;;;5043069;28;20397;-68
2023/08/04 04:53:38;;;;;;;4.55;1.05;;;15.40;99.90;;;;;;5037044;28;20115;-68
2023/08/04 04:56:05;;;;;;;5.18;1.17;;;15.40;99.90;;;;;;5043358;28;20080;-68
2023/08/04 04:58:31;;;;;;;2.45;1.23;;;15.50;99.90;;;;;;5036448;28;20061;-68
2023/08/04 05:01:03;;;;;;;3.30;0.95;;;15.50;99.90;;;;;;5042959;28;20067;-67
2023/08/04 05:03:29;;;;;;;1.67;1.20;;;15.50;99.90;;;;;;5025364;28;20053;-68
2023/08/04 05:05:54;;;;;;;3.95;1.17;;;15.40;99.90;;;;;;5048788;28;20166;-68
2023/08/04 05:08:20;;;;;;;2.17;1.25;;;15.20;99.90;;;;;;5041986;28;20071;-68
2023/08/04 05:10:53;;;;;;;2.60;1.15;;;15.10;99.90;;;;;;5031244;28;20095;-66
2023/08/04 05:13:18;;;;;;;4.40;1.60;;;15.00;99.90;;;;;;5036897;28;20483;-67
2023/08/04 05:15:47;;;;;;;3.08;1.50;;;14.90;99.90;;;;;;5060039;28;20052;-67
2023/08/04 05:18:13;;;;;;;2.40;1.20;;;14.90;99.90;;;;;;5034712;28;20039;-66
2023/08/04 05:20:38;;;;;;;3.95;1.50;;;14.80;99.90;;;;;;5036400;28;20525;-68
2023/08/04 05:23:04;;;;;;;3.28;1.30;;;14.80;99.90;;;;;;5021066;28;20087;-67
2023/08/04 05:25:29;;;;;;;3.40;1.40;;;14.80;99.90;;;;;;5027389;28;20061;-68
2023/08/04 05:27:55;;;;;;;4.40;1.60;;;14.90;99.90;;;;;;5038209;28;20051;-69
2023/08/04 05:30:20;;;;;;;3.35;1.55;;;14.90;99.90;;;;;;5051827;28;20041;-69
2023/08/04 05:32:46;;;;;;;4.45;1.40;;;14.90;99.90;;;;;;5047871;28;20124;-69
2023/08/04 05:35:12;;;;;;;3.88;1.45;;;14.90;99.90;;;;;;5031047;28;20052;-69
2023/08/04 05:37:38;;;;;;;6.85;1.80;;;15.00;99.90;;;;;;5031665;28;20037;-70
2023/08/04 05:40:05;;;;;;;3.72;1.60;;;15.00;99.90;;;;;;5028286;28;20029;-67
2023/08/04 05:42:31;;;;;;;5.55;1.80;;;15.00;99.90;;;;;;5030394;28;20037;-67
2023/08/04 05:44:56;;;;;;;4.13;1.73;;;15.00;99.90;;;;;;5037181;28;20108;-67
2023/08/04 05:47:25;;;;;;;2.97;1.50;;;15.00;99.90;;;;;;5047702;28;20060;-68
2023/08/04 05:49:51;;;;;;;2.00;1.55;;;15.00;99.90;;;;;;5034813;28;20048;-69
2023/08/04 05:52:17;;;;;;;3.17;1.75;;;15.10;99.90;;;;;;5042161;28;20063;-68
2023/08/04 05:54:42;;;;;;;8.02;1.63;;;15.10;99.90;;;;;;5028227;28;20562;-68
2023/08/04 05:57:08;;;;;;;5.25;2.00;;;15.10;99.90;;;;;;5048852;28;20037;-68
2023/08/04 05:59:34;;;;;;;4.00;1.85;;;15.20;99.90;;;;;;5036684;28;20159;-69
2023/08/04 06:02:00;;;;;;;4.55;1.95;;;15.20;99.90;;;;;;5050997;28;20136;-68
2023/08/04 06:04:25;;;;;;;6.55;2.17;;;15.20;99.90;;;;;;5052904;28;20028;-67
2023/08/04 06:06:51;;;;;;;4.78;1.73;;;15.20;99.90;;;;;;5040636;28;20487;-68
2023/08/04 06:09:16;;;;;;;3.47;1.90;;;15.20;99.90;;;;;;5027443;28;20037;-70
2023/08/04 06:11:42;;;;;;;6.78;2.30;;;15.20;99.90;;;;;;5045239;28;20048;-69
2023/08/04 06:14:08;;;;;;;4.63;1.88;;;15.20;99.90;;;;;;5045570;28;20037;-69
2023/08/04 06:16:33;;;;;;;4.50;2.10;;;15.30;99.90;;;;;;5041091;28;20037;-70
2023/08/04 06:18:59;;;;;;;4.43;1.67;;;15.30;99.90;;;;;;5048191;28;20064;-69
2023/08/04 06:21:24;;;;;;;5.85;2.05;;;15.40;99.90;;;;;;5044101;28;20033;-71
2023/08/04 06:23:50;;;;;;;4.07;2.42;;;15.40;99.90;;;;;;5041072;28;20037;-69
2023/08/04 06:26:16;;;;;;;5.70;2.47;;;15.50;99.90;;;;;;5044513;28;20033;-71
2023/08/04 06:28:41;;;;;;;5.38;2.10;;;15.50;99.90;;;;;;5044476;28;20432;-70
2023/08/04 06:31:07;;;;;;;5.10;2.00;;;15.50;99.90;;;;;;5044259;28;20127;-70
2023/08/04 06:33:33;;;;;;;7.45;2.03;;;15.60;99.90;;;;;;5029063;28;20555;-69
2023/08/04 06:35:58;;;;;;;4.25;1.77;;;15.70;99.90;;;;;;5037692;28;20037;-69
2023/08/04 06:38:24;;;;;;;4.40;2.15;;;15.70;99.90;;;;;;5047183;28;20111;-69
2023/08/04 06:40:50;;;;;;;4.95;1.80;;;15.70;99.90;;;;;;5035734;28;20384;-69
2023/08/04 06:43:15;;;;;;;6.85;2.03;;;15.80;99.90;;;;;;5033900;28;20138;-70
2023/08/04 06:45:41;;;;;;;2.22;1.60;;;15.90;99.90;;;;;;5043107;28;20049;-70
2023/08/04 06:48:07;;;;;;;4.35;1.83;;;15.90;99.90;;;;;;5048292;28;20045;-70
2023/08/04 06:50:32;;;;;;;5.63;1.90;;;16.00;99.90;;;;;;5047530;28;20091;-69
2023/08/04 06:52:58;;;;;;;3.67;1.85;;;16.10;99.90;;;;;;5049139;28;20049;-69
2023/08/04 06:55:24;;;;;;;5.13;1.77;;;16.10;99.90;;;;;;5053276;28;20044;-69
2023/08/04 06:57:49;;;;;;;3.40;1.77;;;16.20;99.90;;;;;;5062155;28;20064;-69
2023/08/04 07:00:17;;;;;;;2.72;1.70;;;16.40;99.90;;;;;;5042388;28;20445;-69
2023/08/04 07:02:46;;;;;;;2.80;1.90;;;16.40;99.90;;;;;;5043972;28;20105;-70
2023/08/04 07:05:12;;;;;;;5.75;2.30;;;16.30;99.90;;;;;;5046115;28;20652;-69
2023/08/04 07:07:37;;;;;;;4.25;1.60;;;16.40;99.90;;;;;;5041317;28;20090;-69
2023/08/04 07:10:03;;;;;;;4.72;1.73;;;16.40;99.90;;;;;;5046894;28;20041;-69
2023/08/04 07:12:29;;;;;;;3.42;1.73;;;16.40;99.90;;;;;;5055562;28;20108;-70
2023/08/04 07:14:54;;;;;;;3.90;1.83;;;16.50;99.90;;;;;;5044963;28;20037;-70
2023/08/04 07:17:20;;;;;;;3.75;2.20;;;16.50;99.90;;;;;;5040218;28;20038;-69
2023/08/04 07:19:47;;;;;;;5.78;1.77;;;16.60;99.90;;;;;;5038238;28;20032;-69
2023/08/04 07:22:13;;;;;;;4.38;1.80;;;16.60;99.90;;;;;;5049712;28;20037;-68
2023/08/04 07:24:38;;;;;;;2.22;1.48;;;16.70;99.90;;;;;;5053941;28;20033;-69
2023/08/04 07:27:04;;;;;;;5.63;1.90;;;16.70;99.90;;;;;;5045623;28;20123;-69
2023/08/04 07:29:33;;;;;;;4.80;1.73;;;16.80;99.90;;;;;;5032059;28;20041;-69
2023/08/04 07:31:58;;;;;;;5.28;1.70;;;16.90;99.90;;;;;;5052598;28;20331;-69
2023/08/04 07:34:24;;;;;;;5.57;1.80;;;17.10;99.90;;;;;;5052405;28;20059;-68
2023/08/04 07:36:49;;;;;;;4.53;1.58;;;17.20;99.90;;;;;;5050766;28;20049;-70
2023/08/04 07:39:15;;;;;;;4.07;1.60;;;17.50;99.90;;;;;;5049168;28;20029;-69
2023/08/04 07:41:41;;;;;;;3.75;1.70;;;17.80;99.90;;;;;;5050055;28;20102;-69
2023/08/04 07:44:07;;;;;;;2.47;1.50;;;17.90;99.90;;;;;;5031998;28;20068;-69
2023/08/04 07:46:33;;;;;;;3.03;1.80;;;18.00;99.90;;;;;;5043780;28;20028;-68
2023/08/04 07:48:58;;;;;;;3.78;1.70;;;18.10;99.90;;;;;;5047878;28;20128;-69
2023/08/04 07:51:24;;;;;;;7.13;1.70;;;18.20;99.90;;;;;;5047459;28;20044;-69
2023/08/04 07:53:50;;;;;;;3.65;1.58;;;18.20;99.90;;;;;;5053376;28;20041;-67
2023/08/04 07:56:15;;;;;;;2.92;1.50;;;18.30;99.90;;;;;;5047049;28;20048;-69
2023/08/04 07:58:41;;;;;;;3.20;1.13;;;18.30;99.90;;;;;;5049952;28;20045;-69
2023/08/04 08:01:07;;;;;;;3.83;1.50;;;18.40;99.90;;;;;;5050647;28;20041;-68
2023/08/04 08:03:33;;;;;;;5.25;2.13;;;18.50;99.90;;;;;;5046146;28;20164;-68
2023/08/04 08:06:00;;;;;;;5.05;1.83;;;18.50;99.90;;;;;;5046804;28;20056;-68
2023/08/04 08:08:26;;;;;;;2.63;1.42;;;18.70;99.90;;;;;;5052515;28;20040;-68
2023/08/04 08:10:52;;;;;;;2.88;1.75;;;18.90;99.90;;;;;;5042208;28;20051;-69
2023/08/04 08:13:18;;;;;;;5.25;1.63;;;19.00;99.90;;;;;;5032184;28;20041;-69
2023/08/04 08:15:44;;;;;;;3.42;1.67;;;19.20;99.90;;;;;;5061806;28;20194;-69
2023/08/04 08:18:10;;;;;;;5.25;1.75;;;19.50;99.90;;;;;;5067105;28;20074;-69
2023/08/04 08:20:42;;;;;;;4.07;1.50;;;19.70;99.90;;;;;;5039599;28;20040;-67
2023/08/04 08:23:09;;;;;;;2.83;1.48;;;19.70;99.90;;;;;;5026143;28;20040;-67
2023/08/04 08:25:37;;;;;;;5.53;1.45;;;19.70;99.90;;;;;;5038338;28;20033;-68
2023/08/04 08:28:03;;;;;;;3.40;1.40;;;19.70;99.90;;;;;;5041783;28;20048;-68
2023/08/04 08:30:29;;;;;;;3.75;1.70;;;19.80;99.90;;;;;;5047409;28;20045;-70
2023/08/04 08:32:55;;;;;;;4.82;1.42;;;19.90;99.90;;;;;;5045229;28;21366;-69
2023/08/04 08:35:20;;;;;;;2.80;1.20;;;19.90;99.90;;;;;;5046167;28;20041;-69
2023/08/04 08:37:46;;;;;;;2.22;1.45;;;20.10;99.90;;;;;;5039845;28;20049;-69
2023/08/04 08:40:12;;;;;;;5.22;1.42;;;20.20;99.90;;;;;;5034408;28;20029;-67
2023/08/04 08:42:37;;;;;;;3.28;1.30;;;20.30;99.90;;;;;;5042857;28;20380;-68
2023/08/04 08:45:03;;;;;;;3.55;1.40;;;20.20;99.40;;;;;;5048385;28;20033;-69
2023/08/04 08:47:35;;;;;;;4.75;1.30;;;20.20;98.80;;;;;;5043934;28;20353;-69
2023/08/04 08:50:03;;;;;;;3.72;1.25;;;20.10;97.70;;;;;;5039061;28;20099;-70
2023/08/04 08:52:33;;;;;;;2.75;1.40;;;20.20;97.30;;;;;;5049094;28;20067;-68
2023/08/04 08:55:00;;;;;;;4.13;1.23;;;20.40;97.00;;;;;;5033208;28;20048;-67
2023/08/04 08:57:29;;;;;;;2.38;1.35;;;20.80;95.70;;;;;;5037449;28;20120;-70
2023/08/04 09:00:00;;;;;;;2.58;1.48;;;21.20;93.30;;;;;;5046990;28;20034;-70
2023/08/04 09:02:25;;;;;;;2.50;1.20;;;21.20;91.20;;;;;;5046963;28;20445;-69
2023/08/04 09:04:51;;;;;;;4.18;1.05;;;21.00;93.40;;;;;;5050006;28;20099;-70
2023/08/04 09:07:17;;;;;;;3.25;1.33;;;20.90;93.70;;;;;;5041262;28;20401;-70
2023/08/04 09:09:43;;;;;;;4.38;1.40;;;20.80;93.80;;;;;;5028695;28;20045;-69
2023/08/04 09:12:09;;;;;;;3.03;1.20;;;20.90;93.80;;;;;;5065357;28;20041;-70
2023/08/04 09:15:07;;;;;;;4.80;1.83;;;21.10;93.30;;;;;;5035800;28;20049;-69
2023/08/04 09:17:37;;;;;;;3.03;1.65;;;20.60;99.90;;;;;;5033171;28;20053;-71
2023/08/04 09:20:08;;;;;;;5.40;2.22;;;19.50;99.90;;;;;;5035189;28;20464;-70
2023/08/04 09:22:42;;;;;;;3.40;1.40;;;18.70;99.90;;;;;;5033081;28;20402;-72
2023/08/04 09:25:08;;;;;;;6.43;1.40;;;18.30;99.90;;;;;;5033210;28;20447;-69
2023/08/04 09:27:38;;;;;;;5.30;1.90;;;17.90;99.90;;;;;;5063139;28;20043;-72
2023/08/04 09:30:09;;;;;;;2.70;1.90;;;18.00;99.90;;;;;;5039960;28;20049;-72
2023/08/04 09:32:46;;;;;;;2.22;1.40;;;18.70;99.90;;;;;;5046430;28;20041;-73
2023/08/04 09:35:13;;;;;;;2.83;1.70;;;18.80;99.90;;;;;;5033410;28;20037;-73
2023/08/04 09:37:39;;;;;;;4.43;1.50;;;18.70;99.90;;;;;;5037697;28;20037;-71
2023/08/04 09:40:16;;;;;;;5.28;1.65;;;18.50;99.90;;;;;;5042053;28;20048;-71
2023/08/04 09:42:42;;;;;;;5.07;2.00;;;18.40;99.90;;;;;;5037815;28;20033;-71
2023/08/04 09:45:11;;;;;;;3.88;1.50;;;18.20;99.90;;;;;;5034151;28;20042;-72
2023/08/04 09:47:37;;;;;;;3.08;1.33;;;18.20;99.90;;;;;;5031575;28;20041;-71
2023/08/04 09:50:09;;;;;;;3.80;1.58;;;18.10;99.90;;;;;;5049196;28;20048;-71
2023/08/04 09:52:35;;;;;;;5.70;1.58;;;18.20;99.90;;;;;;5033055;28;20159;-70
2023/08/04 09:55:00;;;;;;;4.75;1.52;;;18.30;99.90;;;;;;5037842;28;20120;-69
2023/08/04 09:57:26;;;;;;;2.25;0.90;;;18.20;99.90;;;;;;5048708;28;20129;-69
2023/08/04 09:59:52;;;;;;;1.42;0.60;;;18.10;99.90;;;;;;5045210;28;20097;-71
2023/08/04 10:02:19;;;;;;;4.68;0.90;;;18.00;99.90;;;;;;5039467;28;20049;-67
2023/08/04 10:04:49;;;;;;;3.15;0.70;;;17.70;99.90;;;;;;5035478;28;20045;-69
2023/08/04 10:07:17;;;;;;;1.38;0.70;;;17.30;99.90;;;;;;5044369;28;20041;-70
2023/08/04 10:09:44;;;;;;;1.80;0.80;;;17.10;99.90;;;;;;5023992;28;20114;-72
2023/08/04 10:12:11;;;;;;;1.50;0.98;;;17.00;99.90;;;;;;5031844;28;20421;-72
2023/08/04 10:14:37;;;;;;;4.25;0.90;;;17.00;99.90;;;;;;5044065;28;20090;-72
2023/08/04 10:17:04;;;;;;;4.13;0.90;;;16.90;99.90;;;;;;5042697;28;20139;-71
2023/08/04 10:19:29;;;;;;;3.28;1.00;;;17.40;99.90;;;;;;5037633;28;20028;-71
2023/08/04 10:22:04;;;;;;;2.33;1.10;;;18.20;99.90;;;;;;5034327;28;20566;-69
2023/08/04 10:24:29;;;;;;;2.58;1.00;;;19.60;99.90;;;;;;5029750;28;20083;-73
2023/08/04 10:26:55;;;;;;;2.83;1.00;;;20.60;99.90;;;;;;5047224;28;20588;-72
2023/08/04 10:29:32;;;;;;;4.70;1.30;;;20.90;99.90;;;;;;5041438;28;20040;-72
2023/08/04 10:31:59;;;;;;;5.65;1.10;;;21.00;99.90;;;;;;5061543;28;20545;-71
2023/08/04 10:34:29;;;;;;;4.65;1.27;;;21.10;99.90;;;;;;5039368;28;20424;-72
2023/08/04 10:37:05;;;;;;;6.35;1.20;;;21.20;99.90;;;;;;5061141;28;20506;-71
2023/08/04 10:39:38;;;;;;;3.75;1.17;;;20.50;99.90;;;;;;5057713;28;20447;-72
2023/08/04 10:42:33;;;;;;;2.55;0.90;;;19.70;99.90;;;;;;5062755;28;20041;-71
2023/08/04 10:45:05;;;;;;;2.45;0.93;;;19.00;99.90;;;;;;5027760;28;20097;-72
2023/08/04 10:47:43;;;;;;;2.70;1.08;;;18.50;99.90;;;;;;5011517;28;20040;-71
2023/08/04 10:50:10;;;;;;;2.45;1.20;;;18.20;99.90;;;;;;5034153;28;20046;-72
2023/08/04 10:52:37;;;;;;;4.82;1.30;;;18.00;99.90;;;;;;5047775;28;20057;-72
2023/08/04 10:55:09;;;;;;;4.68;1.30;;;18.20;99.90;;;;;;5031472;28;20033;-70
2023/08/04 10:57:36;;;;;;;3.67;1.33;;;18.60;99.90;;;;;;5045486;28;20042;-71
2023/08/04 11:00:08;;;;;;;3.75;1.60;;;18.90;99.90;;;;;;5047780;28;20040;-71
2023/08/04 11:02:35;;;;;;;4.57;1.55;;;19.10;99.90;;;;;;5034078;28;20036;-72
2023/08/04 11:05:02;;;;;;;5.35;1.52;;;19.10;99.90;;;;;;5048443;28;20704;-71
2023/08/04 11:07:29;;;;;;;5.38;1.70;;;19.00;99.90;;;;;;5043551;28;20041;-72
2023/08/04 11:09:55;;;;;;;3.47;1.52;;;18.80;99.90;;;;;;5054624;28;20079;-70
2023/08/04 11:12:21;;;;;;;4.60;1.60;;;18.70;99.90;;;;;;5046663;28;20400;-72
2023/08/04 11:14:51;;;;;;;4.35;1.40;;;18.60;99.90;;;;;;5060586;28;20129;-72
2023/08/04 11:17:20;;;;;;;3.63;1.20;;;18.80;99.90;;;;;;5057891;28;20037;-72
2023/08/04 11:19:49;;;;;;;3.63;1.37;;;19.10;99.90;;;;;;5041742;28;20358;-70
2023/08/04 11:22:20;;;;;;;4.70;1.63;;;19.30;99.90;;;;;;5049394;28;20469;-71
2023/08/04 11:24:46;;;;;;;4.38;1.38;;;19.40;99.90;;;;;;5045362;28;20033;-71
2023/08/04 11:27:14;;;;;;;3.15;1.58;;;19.50;99.90;;;;;;5044482;28;20405;-71
2023/08/04 11:29:40;;;;;;;3.28;1.45;;;19.60;99.90;;;;;;5045792;28;20040;-71
2023/08/04 11:32:17;;;;;;;5.88;1.30;;;19.30;99.90;;;;;;5043546;28;20165;-71
2023/08/04 11:34:43;;;;;;;5.07;1.50;;;19.20;99.90;;;;;;5048715;28;20385;-73
2023/08/04 11:37:09;;;;;;;4.40;1.52;;;19.20;99.90;;;;;;5047672;28;20146;-72
2023/08/04 11:39:37;;;;;;;7.60;1.70;;;19.40;99.90;;;;;;5040325;28;20391;-71
2023/08/04 11:42:03;;;;;;;8.32;1.50;;;19.70;99.90;;;;;;5031286;28;20542;-71
2023/08/04 11:44:30;;;;;;;2.35;1.30;;;20.20;99.90;;;;;;5020985;28;20033;-72
2023/08/04 11:46:56;;;;;;;4.78;1.25;;;20.50;99.90;;;;;;5042343;28;20105;-69
2023/08/04 11:49:23;;;;;;;3.92;1.30;;;20.60;99.90;;;;;;5033461;28;20543;-72
2023/08/04 11:51:49;;;;;;;2.60;1.30;;;21.10;99.90;;;;;;5057676;28;20071;-71
2023/08/04 11:54:23;;;;;;;6.35;1.30;;;21.30;99.90;;;;;;5023276;28;20155;-71
2023/08/04 11:56:56;;;;;;;3.55;1.23;;;21.40;99.90;;;;;;5026154;28;20057;-70
2023/08/04 11:59:23;;;;;;;2.85;1.30;;;21.20;99.90;;;;;;5042310;28;20095;-71
2023/08/04 12:01:49;;;;;;;1.83;0.82;;;21.00;99.90;;;;;;5040443;28;20094;-71
2023/08/04 12:04:22;;;;;;;6.05;1.00;;;20.90;99.90;;;;;;5049489;28;20036;-71
2023/08/04 12:07:02;;;;;;;2.20;0.90;;;20.70;99.10;;;;;;5052842;28;20052;-72
2023/08/04 12:09:28;;;;;;;;;;;20.60;99.40;;;;;;5047692;28;20032;-72
2023/08/04 12:11:54;;;;;;;1.63;1.10;;;20.50;95.80;;;;;;5034893;28;20352;-72
2023/08/04 12:14:20;;;;;;;2.35;1.38;;;20.50;99.90;;;;;;5039578;28;20037;-72
2023/08/04 12:16:50;;;;;;;4.53;0.93;;;20.40;99.90;;;;;;5051629;28;20417;-71
2023/08/04 12:19:16;;;;;;;3.47;1.40;;;20.40;99.90;;;;;;5051189;28;20036;-72
2023/08/04 12:21:41;;;;;;;3.13;1.10;;;20.10;99.90;;;;;;5048104;28;20039;-70
2023/08/04 12:24:07;;;;;;;3.60;1.80;;;20.20;99.90;;;;;;5046031;28;20131;-71
2023/08/04 12:26:32;;;;;;;3.60;1.15;;;20.10;99.90;;;;;;5046145;28;20048;-70
2023/08/04 12:28:58;;;;;;;2.95;1.40;;;20.00;99.90;;;;;;5047613;28;20029;-70
2023/08/04 12:31:23;;;;;;;3.55;1.30;;;19.70;99.90;;;;;;5040490;28;20037;-71
2023/08/04 12:33:49;;;;;;;2.30;1.27;;;19.80;99.90;;;;;;5049932;28;20112;-70
2023/08/04 12:36:15;;;;;;;5.43;1.20;;;20.00;99.90;;;;;;5052068;28;20052;-72
2023/08/04 12:38:40;;;;;;;2.05;0.80;;;20.30;99.90;;;;;;5048848;28;20033;-71
2023/08/04 12:41:07;;;;;;;2.55;1.00;;;20.60;99.90;;;;;;5056085;28;20084;-72
2023/08/04 12:43:34;;;;;;;3.40;0.90;;;20.70;99.90;;;;;;5030214;28;20037;-72
2023/08/04 12:45:59;;;;;;;4.45;1.17;;;20.50;99.60;;;;;;5035550;28;20042;-72